Cape Providence — 3EWQ — position and weather

sailwx.info

Track history (hours):
 
Tides and Currents Weather Stations Pressure Air Temp Water Temp Dewpoint Dewpoint Depression Visibility Wind Speed Wind Dir Waves Ship Positions

Cape Providence

Last reported at 2016-Jul-19 12:16 UTC. Time now 2016-Jul-25 04:19 UTC.
Position N 36°44' E 123°53'.

Length 292 m; draft 8.2 m.

Type: Cargo ship. MMSI: 372773000.

Date/timePositionNaut miles runAvg speedWind from/ knotsBaromVisibWave heightAir tempDewpointWater temp
2016-Jul-19 12:16N 36°44' E 123°53'1911.3
2016-Jul-19 10:33N 37°03' E 123°55'1510.7
2016-Jul-19 09:11N 37°18' E 123°55'5010.7
2016-Jul-19 04:33N 37°57' E 123°17'1611.4
2016-Jul-19 03:10N 38°02' E 122°57'711.1
2016-Jul-19 02:33N 38°04' E 122°49'3611.1
2016-Jul-18 23:20N 38°13' E 122°05'1011.7
2016-Jul-18 22:28N 38°16' E 121°53'2712.5
2016-Jul-18 20:17N 38°23' E 121°19'2313.3
2016-Jul-18 18:33N 38°33' E 120°53'1312.7
2016-Jul-18 17:33N 38°38' E 120°38'74 5.3
2016-Jul-18 03:33N 39°03' E 119°09'1110.0
2016-Jul-18 02:29N 39°13' E 119°02'  
2016-Jul-14 15:32N 38°55' E 119°12'0 0.2
2016-Jul-14 14:32N 38°55' E 119°12'0 0.0
2016-Jul-14 12:14N 38°55' E 119°12'1 0.3
2016-Jul-14 09:24N 38°56' E 119°12'7 8.3
2016-Jul-14 08:33N 39°00' E 119°19'9 9.2
2016-Jul-14 07:33N 38°57' E 119°30'1210.3
2016-Jul-14 06:25N 38°54' E 119°45'7310.6
2016-Jul-13 23:32N 38°29' E 121°12'1110.7
2016-Jul-13 22:33N 38°26' E 121°25'1110.7
2016-Jul-13 21:33N 38°23' E 121°38'1010.2
2016-Jul-13 20:33N 38°19' E 121°50'1410.0
2016-Jul-13 19:12N 38°15' E 122°07'1110.1
2016-Jul-13 18:05N 38°12' E 122°21'710.1
2016-Jul-13 17:26N 38°10' E 122°28'910.3
2016-Jul-13 16:33N 38°07' E 122°39'1010.2
2016-Jul-13 15:33N 38°04' E 122°51'1010.2
2016-Jul-13 14:33N 38°01' E 123°04'12 9.8
2016-Jul-13 13:17N 37°56' E 123°18'19 9.5
2016-Jul-13 11:20N 37°42' E 123°33'  
Track history (hours):
 
Tides and Currents Weather Stations Pressure Air Temp Water Temp Dewpoint Dewpoint Depression Visibility Wind Speed Wind Dir Waves Ship Positions

Cape Providence

Last reported at 2016-Jul-19 12:16 UTC. Time now 2016-Jul-25 04:19 UTC.
Position N 36°44' E 123°53'.

Length 292 m; draft 8.2 m.

Type: Cargo ship. MMSI: 372773000.

Date/timePositionNaut miles runAvg speedWind from/ knotsBaromVisibWave heightAir tempDewpointWater temp
2016-Jul-19 12:16N 36°44' E 123°53'1911.3
2016-Jul-19 10:33N 37°03' E 123°55'1510.7
2016-Jul-19 09:11N 37°18' E 123°55'5010.7
2016-Jul-19 04:33N 37°57' E 123°17'1611.4
2016-Jul-19 03:10N 38°02' E 122°57'711.1
2016-Jul-19 02:33N 38°04' E 122°49'3611.1
2016-Jul-18 23:20N 38°13' E 122°05'1011.7
2016-Jul-18 22:28N 38°16' E 121°53'2712.5
2016-Jul-18 20:17N 38°23' E 121°19'2313.3
2016-Jul-18 18:33N 38°33' E 120°53'1312.7
2016-Jul-18 17:33N 38°38' E 120°38'74 5.3
2016-Jul-18 03:33N 39°03' E 119°09'1110.0
2016-Jul-18 02:29N 39°13' E 119°02'  
2016-Jul-14 15:32N 38°55' E 119°12'0 0.2
2016-Jul-14 14:32N 38°55' E 119°12'0 0.0
2016-Jul-14 12:14N 38°55' E 119°12'1 0.3
2016-Jul-14 09:24N 38°56' E 119°12'7 8.3
2016-Jul-14 08:33N 39°00' E 119°19'9 9.2
2016-Jul-14 07:33N 38°57' E 119°30'1210.3
2016-Jul-14 06:25N 38°54' E 119°45'7310.6
2016-Jul-13 23:32N 38°29' E 121°12'1110.7
2016-Jul-13 22:33N 38°26' E 121°25'1110.7
2016-Jul-13 21:33N 38°23' E 121°38'1010.2
2016-Jul-13 20:33N 38°19' E 121°50'1410.0
2016-Jul-13 19:12N 38°15' E 122°07'1110.1
2016-Jul-13 18:05N 38°12' E 122°21'710.1
2016-Jul-13 17:26N 38°10' E 122°28'910.3
2016-Jul-13 16:33N 38°07' E 122°39'1010.2
2016-Jul-13 15:33N 38°04' E 122°51'1010.2
2016-Jul-13 14:33N 38°01' E 123°04'12 9.8
2016-Jul-13 13:17N 37°56' E 123°18'19 9.5
2016-Jul-13 11:20N 37°42' E 123°33'  

Dump ship's entire track history